createdAt,value
2023-04-13T00:00:25.684Z,96781.00
2023-04-13T00:02:56.239Z,96768.00
2023-04-13T00:05:24.776Z,96773.00
2023-04-13T00:07:53.241Z,96780.00
2023-04-13T00:10:21.514Z,96795.00
2023-04-13T00:12:50.013Z,96806.00
2023-04-13T00:15:20.296Z,96810.00
2023-04-13T00:17:48.590Z,96803.00
2023-04-13T00:20:16.408Z,96808.00
2023-04-13T00:22:45.274Z,96818.00
2023-04-13T00:25:14.341Z,96815.00
2023-04-13T00:27:43.363Z,96821.00
2023-04-13T00:30:13.009Z,96822.00
2023-04-13T00:32:43.690Z,96830.00
2023-04-13T00:35:12.690Z,96829.00
2023-04-13T00:37:43.087Z,96830.00
2023-04-13T00:40:12.319Z,96821.00
2023-04-13T00:42:40.039Z,96815.00
2023-04-13T00:45:09.614Z,96822.00
2023-04-13T00:47:37.509Z,96815.00
2023-04-13T00:50:07.776Z,96820.00
2023-04-13T00:52:38.307Z,96810.00
2023-04-13T00:55:07.481Z,96819.00
2023-04-13T00:57:36.566Z,96829.00
2023-04-13T01:00:10.126Z,96813.00
2023-04-13T01:02:41.983Z,96814.00
2023-04-13T01:05:16.280Z,96824.00
2023-04-13T01:08:01.586Z,96817.00
2023-04-13T01:10:40.546Z,96826.00
2023-04-13T01:13:17.288Z,96823.00
2023-04-13T01:15:52.295Z,96826.00
2023-04-13T01:18:21.513Z,96826.00
2023-04-13T01:20:53.063Z,96820.00
2023-04-13T01:23:31.207Z,96829.00
2023-04-13T01:26:04.207Z,96831.00
2023-04-13T01:28:34.564Z,96831.00
2023-04-13T01:31:05.813Z,96829.00
2023-04-13T01:33:34.443Z,96826.00
2023-04-13T01:36:03.111Z,96830.00
2023-04-13T01:38:31.291Z,96834.00
2023-04-13T01:40:59.012Z,96849.00
2023-04-13T01:43:27.466Z,96845.00
2023-04-13T01:46:00.997Z,96844.00
2023-04-13T01:48:34.287Z,96847.00
2023-04-13T01:51:07.351Z,96853.00
2023-04-13T01:53:38.544Z,96856.00
2023-04-13T01:56:07.555Z,96862.00
2023-04-13T01:58:36.801Z,96868.00
2023-04-13T02:01:08.695Z,96854.00
2023-04-13T02:03:38.272Z,96848.00
2023-04-13T02:06:07.505Z,96848.00
2023-04-13T02:08:37.083Z,96843.00
2023-04-13T02:11:05.302Z,96827.00
2023-04-13T02:13:33.175Z,96826.00
2023-04-13T02:16:01.184Z,96813.00
2023-04-13T02:18:30.552Z,96817.00
2023-04-13T02:21:03.339Z,96807.00
2023-04-13T02:23:31.383Z,96811.00
2023-04-13T02:25:59.483Z,96814.00
2023-04-13T02:28:27.780Z,96810.00
2023-04-13T02:30:55.662Z,96808.00
2023-04-13T02:33:24.148Z,96799.00
2023-04-13T02:35:53.168Z,96803.00
2023-04-13T02:38:20.794Z,96815.00
2023-04-13T02:40:49.366Z,96821.00
2023-04-13T02:43:17.625Z,96820.00
2023-04-13T02:45:45.305Z,96824.00
2023-04-13T02:48:13.004Z,96829.00
2023-04-13T02:50:40.961Z,96825.00
2023-04-13T02:53:10.015Z,96824.00
2023-04-13T02:55:37.792Z,96835.00
2023-04-13T02:58:06.415Z,96839.00
2023-04-13T03:00:34.127Z,96830.00
2023-04-13T03:03:03.554Z,96837.00
2023-04-13T03:05:32.220Z,96832.00
2023-04-13T03:07:59.964Z,96841.00
2023-04-13T03:10:31.314Z,96842.00
2023-04-13T03:12:59.049Z,96841.00
2023-04-13T03:15:26.805Z,96838.00
2023-04-13T03:17:54.529Z,96836.00
2023-04-13T03:20:23.872Z,96850.00
2023-04-13T03:22:51.710Z,96849.00
2023-04-13T03:25:19.482Z,96852.00
2023-04-13T03:27:48.599Z,96852.00
2023-04-13T03:30:16.266Z,96867.00
2023-04-13T03:32:44.017Z,96870.00
2023-04-13T03:35:11.958Z,96874.00
2023-04-13T03:37:42.913Z,96872.00
2023-04-13T03:40:11.654Z,96873.00
2023-04-13T03:42:39.488Z,96871.00
2023-04-13T03:45:10.573Z,96860.00
2023-04-13T03:47:38.987Z,96866.00
2023-04-13T03:50:07.799Z,96870.00
2023-04-13T03:52:35.628Z,96872.00
2023-04-13T03:55:03.559Z,96878.00
2023-04-13T03:57:31.400Z,96886.00
2023-04-13T03:59:59.195Z,96880.00
2023-04-13T04:02:28.476Z,96880.00
2023-04-13T04:04:56.235Z,96874.00
2023-04-13T04:07:24.016Z,96884.00
2023-04-13T04:09:51.726Z,96879.00
2023-04-13T04:12:19.410Z,96889.00
2023-04-13T04:14:47.045Z,96894.00
2023-04-13T04:17:14.770Z,96898.00
2023-04-13T04:19:43.810Z,96900.00
2023-04-13T04:22:14.129Z,96896.00
2023-04-13T04:24:43.500Z,96894.00
2023-04-13T04:27:14.377Z,96893.00
2023-04-13T04:29:49.032Z,96888.00
2023-04-13T04:32:18.661Z,96889.00
2023-04-13T04:34:52.971Z,96887.00
2023-04-13T04:37:22.218Z,96884.00
2023-04-13T04:39:50.041Z,96888.00
2023-04-13T04:42:18.688Z,96887.00
2023-04-13T04:44:50.300Z,96890.00
2023-04-13T04:47:20.899Z,96892.00
2023-04-13T04:49:50.059Z,96892.00
2023-04-13T04:52:17.716Z,96892.00
2023-04-13T04:54:45.373Z,96901.00
2023-04-13T04:57:14.600Z,96893.00
2023-04-13T04:59:42.395Z,96897.00
2023-04-13T05:02:10.368Z,96903.00
2023-04-13T05:04:39.684Z,96898.00
2023-04-13T05:07:09.058Z,96907.00
2023-04-13T05:09:38.638Z,96909.00
2023-04-13T05:12:06.772Z,96917.00
2023-04-13T05:14:34.488Z,96914.00
2023-04-13T05:17:02.467Z,96927.00
2023-04-13T05:19:30.238Z,96924.00
2023-04-13T05:21:58.071Z,96919.00
2023-04-13T05:24:27.152Z,96918.00
2023-04-13T05:26:56.594Z,96926.00
2023-04-13T05:29:24.281Z,96935.00
2023-04-13T05:31:52.114Z,96927.00
2023-04-13T05:34:20.243Z,96927.00
2023-04-13T05:36:47.940Z,96928.00
2023-04-13T05:39:16.133Z,96921.00
2023-04-13T05:41:45.172Z,96936.00
2023-04-13T05:44:13.044Z,96936.00
2023-04-13T05:46:40.899Z,96934.00
2023-04-13T05:49:09.294Z,96933.00
2023-04-13T05:51:37.173Z,96922.00
2023-04-13T05:54:05.217Z,96927.00
2023-04-13T05:56:34.314Z,96921.00
2023-04-13T05:59:03.810Z,96925.00
2023-04-13T06:01:31.666Z,96925.00
2023-04-13T06:04:00.852Z,96911.00
2023-04-13T06:06:30.199Z,96916.00
2023-04-13T06:08:58.240Z,96910.00
2023-04-13T06:11:26.306Z,96918.00
2023-04-13T06:13:56.522Z,96922.00
2023-04-13T06:16:28.597Z,96917.00
2023-04-13T06:18:59.258Z,96930.00
2023-04-13T06:21:30.148Z,96937.00
2023-04-13T06:23:57.866Z,96945.00
2023-04-13T06:26:25.691Z,96935.00
2023-04-13T06:28:53.403Z,96936.00
2023-04-13T06:31:21.337Z,96940.00
2023-04-13T06:33:50.720Z,96938.00
2023-04-13T06:36:18.548Z,96944.00
2023-04-13T06:38:46.419Z,96945.00
2023-04-13T06:41:14.110Z,96941.00
2023-04-13T06:43:42.099Z,96942.00
2023-04-13T06:46:10.390Z,96933.00
2023-04-13T06:48:38.929Z,96936.00
2023-04-13T06:51:08.673Z,96936.00
2023-04-13T06:53:36.569Z,96925.00
2023-04-13T06:56:04.270Z,96933.00
2023-04-13T06:58:32.085Z,96935.00
2023-04-13T07:00:59.858Z,96934.00
2023-04-13T07:03:28.261Z,96939.00
2023-04-13T07:05:56.109Z,96940.00
2023-04-13T07:08:25.211Z,96946.00
2023-04-13T07:10:54.380Z,96950.00
2023-04-13T07:13:22.219Z,96949.00
2023-04-13T07:15:49.926Z,96961.00
2023-04-13T07:18:17.712Z,96963.00
2023-04-13T07:20:45.475Z,96961.00
2023-04-13T07:23:13.155Z,96960.00
2023-04-13T07:25:42.226Z,96965.00
2023-04-13T07:28:09.936Z,96960.00
2023-04-13T07:30:37.613Z,96970.00
2023-04-13T07:33:05.551Z,96966.00
2023-04-13T07:35:33.507Z,96979.00
2023-04-13T07:38:01.396Z,96985.00
2023-04-13T07:40:29.199Z,96984.00
2023-04-13T07:42:58.499Z,96992.00
2023-04-13T07:45:26.263Z,96986.00
2023-04-13T07:47:54.714Z,96990.00
2023-04-13T07:50:23.085Z,96997.00
2023-04-13T07:52:50.793Z,96988.00
2023-04-13T07:55:18.532Z,96990.00
2023-04-13T07:57:46.280Z,96991.00
2023-04-13T08:00:18.371Z,96986.00
2023-04-13T08:02:46.203Z,97004.00
2023-04-13T08:05:14.350Z,97004.00
2023-04-13T08:07:42.145Z,96999.00
2023-04-13T08:10:10.926Z,97004.00
2023-04-13T08:12:38.676Z,97003.00
2023-04-13T08:15:07.601Z,97003.00
2023-04-13T08:17:36.762Z,97004.00
2023-04-13T08:20:08.002Z,97002.00
2023-04-13T08:22:36.744Z,97015.00
2023-04-13T08:25:06.820Z,97005.00
2023-04-13T08:27:34.525Z,97001.00
2023-04-13T08:30:03.496Z,97012.00
2023-04-13T08:32:31.273Z,97011.00
2023-04-13T08:35:06.749Z,97009.00
2023-04-13T08:37:34.980Z,97005.00
2023-04-13T08:40:07.161Z,97002.00
2023-04-13T08:42:35.295Z,97000.00
2023-04-13T08:45:04.631Z,97002.00
2023-04-13T08:47:32.377Z,96997.00
2023-04-13T08:50:02.914Z,96991.00
2023-04-13T08:52:32.445Z,96983.00
2023-04-13T08:55:02.220Z,96982.00
2023-04-13T08:57:30.563Z,96984.00
2023-04-13T08:59:59.444Z,96983.00
2023-04-13T09:02:30.933Z,96990.00
2023-04-13T09:05:05.526Z,96992.00
2023-04-13T09:07:34.710Z,96983.00
2023-04-13T09:10:02.584Z,96975.00
2023-04-13T09:12:32.218Z,96967.00
2023-04-13T09:15:00.039Z,96981.00
2023-04-13T09:17:29.553Z,96984.00
2023-04-13T09:19:58.242Z,96991.00
2023-04-13T09:22:32.078Z,96992.00
2023-04-13T09:24:59.788Z,96991.00
2023-04-13T09:27:27.497Z,96996.00
2023-04-13T09:29:57.048Z,96998.00
2023-04-13T09:32:26.433Z,96983.00
2023-04-13T09:35:01.500Z,96985.00
2023-04-13T09:37:30.617Z,96982.00
2023-04-13T09:40:09.501Z,96999.00
2023-04-13T09:42:38.589Z,96989.00
2023-04-13T09:45:07.751Z,96983.00
2023-04-13T09:47:40.650Z,96978.00
2023-04-13T09:50:18.319Z,96985.00
2023-04-13T09:52:47.461Z,96990.00
2023-04-13T09:55:17.774Z,96983.00
2023-04-13T09:57:45.505Z,96987.00
2023-04-13T10:00:20.595Z,96985.00
2023-04-13T10:02:50.769Z,96976.00
2023-04-13T10:05:19.643Z,96990.00
2023-04-13T10:07:49.487Z,96978.00
2023-04-13T10:10:17.260Z,96981.00
2023-04-13T10:12:48.447Z,96990.00
2023-04-13T10:15:31.360Z,96998.00
2023-04-13T10:18:10.844Z,96981.00
2023-04-13T10:20:39.384Z,96981.00
2023-04-13T10:23:09.118Z,96979.00
2023-04-13T10:25:39.637Z,96989.00
2023-04-13T10:28:07.621Z,96988.00
2023-04-13T10:30:35.325Z,96978.00
2023-04-13T10:33:05.730Z,96983.00
2023-04-13T10:35:37.062Z,96974.00
2023-04-13T10:38:05.051Z,96977.00
2023-04-13T10:40:45.059Z,96974.00
2023-04-13T10:43:12.854Z,96980.00
2023-04-13T10:45:40.667Z,96973.00
2023-04-13T10:48:08.778Z,96973.00
2023-04-13T10:50:37.824Z,96975.00
2023-04-13T10:53:06.940Z,96973.00
2023-04-13T10:55:35.594Z,96965.00
2023-04-13T10:58:15.785Z,96970.00
2023-04-13T11:00:47.137Z,96974.00
2023-04-13T11:03:17.653Z,96982.00
2023-04-13T11:05:46.131Z,96982.00
2023-04-13T11:08:19.084Z,96964.00
2023-04-13T11:10:52.494Z,96977.00
2023-04-13T11:13:22.160Z,96966.00
2023-04-13T11:15:50.608Z,96970.00
2023-04-13T11:18:26.854Z,96969.00
2023-04-13T11:20:54.887Z,96969.00
2023-04-13T11:23:24.239Z,96962.00
2023-04-13T11:25:58.136Z,96955.00
2023-04-13T11:28:38.691Z,96947.00
2023-04-13T11:31:07.480Z,96940.00
2023-04-13T11:33:37.797Z,96947.00
2023-04-13T11:36:07.891Z,96944.00
2023-04-13T11:38:35.657Z,96949.00
2023-04-13T11:41:15.697Z,96949.00
2023-04-13T11:43:48.382Z,96955.00
2023-04-13T11:46:23.158Z,96956.00
2023-04-13T11:48:52.307Z,96957.00
2023-04-13T11:51:20.381Z,96947.00
2023-04-13T11:53:48.388Z,96953.00
2023-04-13T11:56:16.364Z,96956.00
2023-04-13T11:58:44.056Z,96949.00
2023-04-13T12:01:20.429Z,96953.00
2023-04-13T12:04:01.656Z,96951.00
2023-04-13T12:06:42.630Z,96952.00
2023-04-13T12:09:13.888Z,96953.00
2023-04-13T12:11:50.012Z,96951.00
2023-04-13T12:14:47.647Z,96954.00
2023-04-13T12:17:35.567Z,96954.00
2023-04-13T12:20:01.512Z,96959.00
2023-04-13T12:22:50.806Z,96954.00
2023-04-13T12:25:20.825Z,96964.00
2023-04-13T12:27:50.735Z,96959.00
2023-04-13T12:30:19.481Z,96971.00
2023-04-13T12:32:50.150Z,96984.00
2023-04-13T12:35:19.410Z,96976.00
2023-04-13T12:37:47.931Z,96978.00
2023-04-13T12:40:17.006Z,96982.00
2023-04-13T12:42:45.363Z,96977.00
2023-04-13T12:45:14.018Z,96978.00
2023-04-13T12:47:42.182Z,96977.00
2023-04-13T12:50:12.568Z,96968.00
2023-04-13T12:52:42.873Z,96970.00
2023-04-13T12:55:11.408Z,96971.00
2023-04-13T12:57:39.749Z,96968.00
2023-04-13T13:00:11.447Z,96966.00
2023-04-13T13:02:39.485Z,96966.00
2023-04-13T13:05:09.357Z,96965.00
2023-04-13T13:07:38.617Z,96971.00
2023-04-13T13:10:14.900Z,96972.00
2023-04-13T13:12:49.799Z,96977.00
2023-04-13T13:15:17.477Z,96970.00
2023-04-13T13:17:45.412Z,96970.00
2023-04-13T13:20:14.193Z,96977.00
2023-04-13T13:22:43.281Z,96981.00
2023-04-13T13:25:11.379Z,96981.00
2023-04-13T13:30:10.749Z,96979.00
2023-04-13T13:32:38.609Z,96985.00
2023-04-13T13:35:08.455Z,96979.00
2023-04-13T13:37:36.929Z,96988.00
2023-04-13T13:40:12.916Z,96990.00
2023-04-13T13:42:51.219Z,96984.00
2023-04-13T13:45:19.917Z,96985.00
2023-04-13T13:47:48.875Z,96979.00
2023-04-13T13:50:16.574Z,96982.00
2023-04-13T13:52:59.214Z,96988.00
2023-04-13T13:55:32.002Z,97000.00
2023-04-13T13:57:59.744Z,96991.00
2023-04-13T14:00:27.468Z,96990.00
2023-04-13T14:02:55.205Z,96988.00
2023-04-13T14:05:23.302Z,96990.00
2023-04-13T14:07:51.164Z,96992.00
2023-04-13T14:10:18.880Z,96989.00
2023-04-13T14:12:50.464Z,96997.00
2023-04-13T14:15:18.663Z,96993.00
2023-04-13T14:17:55.806Z,96999.00
2023-04-13T14:20:34.630Z,96996.00
2023-04-13T14:23:02.367Z,96988.00
2023-04-13T14:25:30.022Z,96992.00
2023-04-13T14:27:59.022Z,96999.00
2023-04-13T14:30:28.191Z,96990.00
2023-04-13T14:32:56.607Z,96993.00
2023-04-13T14:35:24.819Z,96992.00
2023-04-13T14:37:52.835Z,96985.00
2023-04-13T14:40:22.500Z,96985.00
2023-04-13T14:42:52.601Z,96990.00
2023-04-13T14:45:22.133Z,96989.00
2023-04-13T14:47:50.053Z,96988.00
2023-04-13T14:50:18.249Z,96992.00
2023-04-13T14:52:47.004Z,96989.00
2023-04-13T14:55:15.661Z,96984.00
2023-04-13T14:57:43.394Z,96986.00
2023-04-13T15:00:15.803Z,96983.00
2023-04-13T15:02:45.042Z,96984.00
2023-04-13T15:05:13.121Z,96987.00
2023-04-13T15:07:41.023Z,96985.00
2023-04-13T15:10:09.594Z,96987.00
2023-04-13T15:12:37.231Z,96983.00
2023-04-13T15:15:06.987Z,96978.00
2023-04-13T15:17:34.693Z,96980.00
2023-04-13T15:20:07.330Z,96984.00
2023-04-13T15:22:36.704Z,96977.00
2023-04-13T15:25:04.768Z,96984.00
2023-04-13T15:27:32.484Z,96983.00
2023-04-13T15:30:03.153Z,96986.00
2023-04-13T15:32:31.487Z,96986.00
2023-04-13T15:34:59.296Z,96987.00
2023-04-13T15:37:28.313Z,96987.00
2023-04-13T15:39:56.314Z,96986.00
2023-04-13T15:42:23.964Z,96982.00
2023-04-13T15:44:51.643Z,96979.00
2023-04-13T15:47:19.377Z,96971.00
2023-04-13T15:49:47.336Z,96973.00
2023-04-13T15:52:14.999Z,96965.00
2023-04-13T15:54:44.024Z,96963.00
2023-04-13T15:57:11.749Z,96965.00
2023-04-13T15:59:39.517Z,96967.00
2023-04-13T16:02:07.276Z,96970.00
2023-04-13T16:04:35.191Z,96976.00
2023-04-13T16:07:12.863Z,96983.00
2023-04-13T16:09:44.587Z,96984.00
2023-04-13T16:12:12.523Z,96989.00
2023-04-13T16:14:41.976Z,96988.00
2023-04-13T16:17:10.390Z,97003.00
2023-04-13T16:19:39.646Z,97007.00
2023-04-13T16:22:10.517Z,97004.00
2023-04-13T16:24:38.618Z,97010.00
2023-04-13T16:27:08.642Z,97017.00
2023-04-13T16:29:36.601Z,97016.00
2023-04-13T16:32:04.305Z,97020.00
2023-04-13T16:34:32.045Z,97027.00
2023-04-13T16:36:59.739Z,97026.00
2023-04-13T16:39:27.520Z,97028.00
2023-04-13T16:41:55.459Z,97022.00
2023-04-13T16:44:24.625Z,97021.00
2023-04-13T16:46:52.514Z,97032.00
2023-04-13T16:49:20.328Z,97029.00
2023-04-13T16:51:48.481Z,97036.00
2023-04-13T16:54:17.912Z,97035.00
2023-04-13T16:56:45.601Z,97037.00
2023-04-13T16:59:13.408Z,97039.00
2023-04-13T17:01:42.440Z,97054.00
2023-04-13T17:04:10.389Z,97061.00
2023-04-13T17:06:39.388Z,97061.00
2023-04-13T17:09:07.197Z,97060.00
2023-04-13T17:11:35.505Z,97062.00
2023-04-13T17:14:04.259Z,97058.00
2023-04-13T17:16:31.975Z,97058.00
2023-04-13T17:19:01.613Z,97058.00
2023-04-13T17:21:29.669Z,97060.00
2023-04-13T17:23:57.322Z,97067.00
2023-04-13T17:26:25.190Z,97069.00
2023-04-13T17:28:53.189Z,97067.00
2023-04-13T17:31:20.896Z,97076.00
2023-04-13T17:33:50.903Z,97079.00
2023-04-13T17:36:21.983Z,97080.00
2023-04-13T17:38:49.688Z,97082.00
2023-04-13T17:41:18.056Z,97078.00
2023-04-13T17:43:45.834Z,97078.00
2023-04-13T17:46:13.594Z,97080.00
2023-04-13T17:48:41.551Z,97085.00
2023-04-13T17:51:11.433Z,97097.00
2023-04-13T17:53:40.708Z,97101.00
2023-04-13T17:56:09.270Z,97095.00
2023-04-13T17:58:36.970Z,97104.00
2023-04-13T18:01:08.512Z,97096.00
2023-04-13T18:03:36.993Z,97089.00
2023-04-13T18:06:06.123Z,97100.00
2023-04-13T18:08:34.000Z,97099.00
2023-04-13T18:11:04.003Z,97095.00
2023-04-13T18:13:32.480Z,97094.00
2023-04-13T18:16:00.380Z,97092.00
2023-04-13T18:18:28.243Z,97091.00
2023-04-13T18:20:56.541Z,97100.00
2023-04-13T18:23:24.505Z,97104.00
2023-04-13T18:25:52.909Z,97109.00
2023-04-13T18:28:21.963Z,97111.00
2023-04-13T18:30:50.236Z,97107.00
2023-04-13T18:33:17.978Z,97101.00
2023-04-13T18:35:46.732Z,97103.00
2023-04-13T18:38:14.507Z,97115.00
2023-04-13T18:40:42.361Z,97115.00
2023-04-13T18:43:10.225Z,97109.00
2023-04-13T18:45:39.581Z,97116.00
2023-04-13T18:48:09.465Z,97109.00
2023-04-13T18:50:37.509Z,97117.00
2023-04-13T18:53:05.348Z,97122.00
2023-04-13T18:55:33.220Z,97120.00
2023-04-13T18:58:00.950Z,97113.00
2023-04-13T19:00:28.824Z,97124.00
2023-04-13T19:02:58.175Z,97121.00
2023-04-13T19:05:26.455Z,97123.00
2023-04-13T19:08:00.923Z,97118.00
2023-04-13T19:10:29.163Z,97113.00
2023-04-13T19:12:57.079Z,97118.00
2023-04-13T19:15:25.313Z,97114.00
2023-04-13T19:17:53.412Z,97117.00
2023-04-13T19:20:25.108Z,97112.00
2023-04-13T19:22:52.862Z,97117.00
2023-04-13T19:25:20.947Z,97120.00
2023-04-13T19:27:50.369Z,97123.00
2023-04-13T19:30:19.222Z,97128.00
2023-04-13T19:32:48.392Z,97123.00
2023-04-13T19:35:16.580Z,97126.00
2023-04-13T19:37:45.733Z,97135.00
2023-04-13T19:40:15.180Z,97137.00
2023-04-13T19:42:49.875Z,97131.00
2023-04-13T19:45:17.537Z,97141.00
2023-04-13T19:47:45.685Z,97131.00
2023-04-13T19:50:15.084Z,97130.00
2023-04-13T19:52:43.447Z,97127.00
2023-04-13T19:55:12.419Z,97123.00
2023-04-13T19:57:42.933Z,97130.00
2023-04-13T20:00:19.201Z,97130.00
2023-04-13T20:02:49.797Z,97118.00
2023-04-13T20:05:18.677Z,97119.00
2023-04-13T20:07:46.539Z,97114.00
2023-04-13T20:10:15.699Z,97119.00
2023-04-13T20:12:43.698Z,97124.00
2023-04-13T20:15:11.829Z,97117.00
2023-04-13T20:17:39.711Z,97120.00
2023-04-13T20:20:10.707Z,97123.00
2023-04-13T20:22:38.515Z,97121.00
2023-04-13T20:25:07.056Z,97114.00
2023-04-13T20:27:37.872Z,97128.00
2023-04-13T20:30:06.393Z,97123.00
2023-04-13T20:32:34.178Z,97124.00
2023-04-13T20:35:02.806Z,97124.00
2023-04-13T20:37:30.453Z,97132.00
2023-04-13T20:39:58.163Z,97139.00
2023-04-13T20:42:26.018Z,97127.00
2023-04-13T20:44:57.690Z,97135.00
2023-04-13T20:47:26.446Z,97134.00
2023-04-13T20:49:57.668Z,97129.00
2023-04-13T20:52:25.990Z,97121.00
2023-04-13T20:54:54.652Z,97118.00
2023-04-13T20:57:22.801Z,97113.00
2023-04-13T20:59:52.130Z,97114.00
2023-04-13T21:02:21.897Z,97108.00
2023-04-13T21:04:49.833Z,97106.00
2023-04-13T21:07:17.791Z,97100.00
2023-04-13T21:09:45.679Z,97097.00
2023-04-13T21:12:13.875Z,97089.00
2023-04-13T21:14:41.587Z,97087.00
2023-04-13T21:17:09.953Z,97096.00
2023-04-13T21:19:39.120Z,97089.00
2023-04-13T21:22:07.309Z,97077.00
2023-04-13T21:24:35.003Z,97076.00
2023-04-13T21:27:03.932Z,97074.00
2023-04-13T21:29:31.742Z,97077.00
2023-04-13T21:32:01.504Z,97077.00
2023-04-13T21:34:29.727Z,97094.00
2023-04-13T21:37:00.811Z,97099.00
2023-04-13T21:39:28.493Z,97102.00
2023-04-13T21:41:56.504Z,97114.00
2023-04-13T21:44:29.627Z,97109.00
2023-04-13T21:46:58.427Z,97111.00
2023-04-13T21:49:26.660Z,97127.00
2023-04-13T21:51:54.345Z,97125.00
2023-04-13T21:54:23.469Z,97128.00
2023-04-13T21:56:51.296Z,97125.00
2023-04-13T21:59:19.315Z,97126.00
2023-04-13T22:01:47.338Z,97141.00
2023-04-13T22:04:15.647Z,97140.00
2023-04-13T22:06:43.460Z,97129.00
2023-04-13T22:09:13.844Z,97127.00
2023-04-13T22:11:42.876Z,97132.00
2023-04-13T22:14:10.597Z,97141.00
2023-04-13T22:16:38.232Z,97133.00
2023-04-13T22:19:06.012Z,97136.00
2023-04-13T22:21:35.860Z,97130.00
2023-04-13T22:24:03.625Z,97130.00
2023-04-13T22:26:31.344Z,97125.00
2023-04-13T22:29:00.594Z,97122.00
2023-04-13T22:31:28.567Z,97122.00
2023-04-13T22:33:56.507Z,97121.00
2023-04-13T22:36:24.185Z,97114.00
2023-04-13T22:38:52.018Z,97110.00
2023-04-13T22:41:20.059Z,97104.00
2023-04-13T22:43:47.733Z,97102.00
2023-04-13T22:46:16.790Z,97108.00
2023-04-13T22:48:44.526Z,97103.00
2023-04-13T22:51:12.266Z,97109.00
2023-04-13T22:53:39.901Z,97107.00
2023-04-13T22:56:07.988Z,97111.00
2023-04-13T22:58:35.695Z,97115.00
2023-04-13T23:01:03.400Z,97117.00
2023-04-13T23:03:32.620Z,97112.00
2023-04-13T23:06:00.429Z,97111.00
2023-04-13T23:08:29.576Z,97113.00
2023-04-13T23:10:57.720Z,97111.00
2023-04-13T23:13:25.404Z,97110.00
2023-04-13T23:16:00.174Z,97097.00
2023-04-13T23:18:28.295Z,97098.00
2023-04-13T23:21:00.567Z,97101.00
2023-04-13T23:23:29.170Z,97105.00
2023-04-13T23:25:59.659Z,97103.00
2023-04-13T23:28:27.357Z,97108.00
2023-04-13T23:31:02.816Z,97110.00
2023-04-13T23:33:30.518Z,97104.00
2023-04-13T23:35:58.168Z,97107.00
2023-04-13T23:38:27.244Z,97104.00
2023-04-13T23:40:55.364Z,97105.00
2023-04-13T23:43:23.680Z,97104.00
2023-04-13T23:45:52.234Z,97100.00
2023-04-13T23:48:20.972Z,97104.00
2023-04-13T23:50:49.201Z,97115.00
2023-04-13T23:53:17.623Z,97116.00
2023-04-13T23:55:46.682Z,97115.00
2023-04-13T23:58:14.376Z,97117.00
